Time;durP1;ratioP1;P1;durP2;ratioP2;P2;SDS_P1;SDS_P2;PMS_P1;PMS_P2;Temp;Humidity;BMP_temperature;BMP_pressure;BME280_temperature;BME280_humidity;BME280_pressure;Samples;Min_cycle;Max_cycle;Signal;HPM_P1;HPM_P2
2021/10/13 00:00:11;;;;;;;16.35;8.07;;;;;;;;;;5110227;28;20031;-65
2021/10/13 00:02:37;;;;;;;21.65;10.40;;;;;;;;;;5099372;28;20059;-65
2021/10/13 00:05:04;;;;;;;17.05;8.55;;;;;;;;;;5113537;28;20124;-65
2021/10/13 00:07:30;;;;;;;20.20;9.02;;;;;;;;;;5104905;28;20020;-65
2021/10/13 00:09:57;;;;;;;18.48;8.82;;;;;;;;;;5110252;28;20488;-65
2021/10/13 00:12:23;;;;;;;28.40;9.50;;;;;;;;;;5110018;28;20019;-65
2021/10/13 00:14:49;;;;;;;18.02;7.40;;;;;;;;;;5109730;28;20032;-65
2021/10/13 00:17:15;;;;;;;16.35;7.82;;;;;;;;;;5103768;28;20471;-65
2021/10/13 00:19:41;;;;;;;20.35;8.35;;;;;;;;;;5110561;28;20089;-65
2021/10/13 00:22:07;;;;;;;19.27;8.27;;;;;;;;;;5109116;28;20059;-65
2021/10/13 00:24:33;;;;;;;19.42;7.53;;;;;;;;;;5111597;28;20065;-66
2021/10/13 00:26:59;;;;;;;13.40;6.50;;;;;;;;;;5110370;28;20391;-66
2021/10/13 00:29:25;;;;;;;11.90;6.00;;;;;;;;;;5112181;28;20526;-66
2021/10/13 00:31:51;;;;;;;11.65;6.47;;;;;;;;;;5100664;28;20055;-65
2021/10/13 00:34:17;;;;;;;16.38;6.22;;;;;;;;;;5109788;28;20051;-66
2021/10/13 00:36:43;;;;;;;254.98;13.48;;;;;;;;;;5109917;28;20020;-65
2021/10/13 00:39:09;;;;;;;20.63;7.82;;;;;;;;;;5109792;28;20474;-66
2021/10/13 00:41:36;;;;;;;18.27;7.75;;;;;;;;;;5110545;28;20019;-65
2021/10/13 00:44:02;;;;;;;24.50;9.70;;;;;;;;;;5112424;28;20464;-66
2021/10/13 00:46:28;;;;;;;24.80;8.98;;;;;;;;;;5109638;28;20466;-65
2021/10/13 00:48:54;;;;;;;25.08;8.57;;;;;;;;;;5109949;28;20110;-65
2021/10/13 00:51:20;;;;;;;10.88;4.63;;;;;;;;;;5109014;28;20052;-65
2021/10/13 00:53:46;;;;;;;16.50;5.13;;;;;;;;;;5109765;28;20407;-65
2021/10/13 00:56:12;;;;;;;12.52;5.43;;;;;;;;;;5111789;28;20076;-65
2021/10/13 00:58:38;;;;;;;14.63;6.20;;;;;;;;;;5110020;28;20034;-66
2021/10/13 01:01:10;;;;;;;15.32;5.63;;;;;;;;;;5108922;28;20035;-65
2021/10/13 01:03:42;;;;;;;14.57;6.47;;;;;;;;;;5108932;28;20027;-65
2021/10/13 01:06:19;;;;;;;15.48;6.43;;;;;;;;;;5109752;28;20027;-66
2021/10/13 01:08:45;;;;;;;17.80;6.07;;;;;;;;;;5094461;28;20383;-66
2021/10/13 01:11:17;;;;;;;14.38;6.28;;;;;;;;;;5112204;28;20102;-65
2021/10/13 01:13:53;;;;;;;12.80;5.70;;;;;;;;;;5108790;28;20040;-66
2021/10/13 01:16:34;;;;;;;13.50;5.82;;;;;;;;;;5108421;28;20023;-66
2021/10/13 01:19:02;;;;;;;12.60;5.72;;;;;;;;;;5109391;28;20024;-66
2021/10/13 01:21:43;;;;;;;13.70;5.67;;;;;;;;;;5109370;28;20415;-65
2021/10/13 01:24:21;;;;;;;12.60;6.82;;;;;;;;;;5108773;28;20589;-65
2021/10/13 01:26:47;;;;;;;;;;;;;;;;;;5094465;28;20092;-63
2021/10/13 01:29:14;;;;;;;10.27;5.18;;;;;;;;;;5111699;28;19994;-65
2021/10/13 01:31:44;;;;;;;13.88;6.03;;;;;;;;;;5109772;28;20028;-65
2021/10/13 01:34:14;;;;;;;14.30;6.68;;;;;;;;;;5108340;28;20057;-65
2021/10/13 01:36:43;;;;;;;17.55;6.63;;;;;;;;;;5108279;28;20035;-65
2021/10/13 01:39:12;;;;;;;13.70;5.38;;;;;;;;;;5108320;28;20458;-65
2021/10/13 01:41:38;;;;;;;13.65;5.43;;;;;;;;;;5093122;28;20019;-65
2021/10/13 01:44:05;;;;;;;10.45;5.32;;;;;;;;;;5111672;28;20020;-65
2021/10/13 01:46:32;;;;;;;11.55;5.82;;;;;;;;;;5108607;28;20054;-65
2021/10/13 01:49:01;;;;;;;13.55;5.97;;;;;;;;;;5107391;28;20023;-65
2021/10/13 01:51:28;;;;;;;13.75;5.82;;;;;;;;;;5108178;28;20040;-65
2021/10/13 01:53:56;;;;;;;11.90;5.05;;;;;;;;;;5106428;28;20075;-65
2021/10/13 01:56:24;;;;;;;11.95;4.93;;;;;;;;;;5110136;28;20432;-65
2021/10/13 01:58:51;;;;;;;9.45;4.93;;;;;;;;;;5109927;28;20057;-65
2021/10/13 02:01:19;;;;;;;10.32;4.22;;;;;;;;;;5103577;28;20111;-65
2021/10/13 02:03:46;;;;;;;12.73;5.40;;;;;;;;;;5104350;28;20053;-65
2021/10/13 02:06:12;;;;;;;11.60;5.15;;;;;;;;;;5108111;28;20080;-65
2021/10/13 02:08:40;;;;;;;14.60;5.05;;;;;;;;;;5092795;28;20550;-65
2021/10/13 02:11:06;;;;;;;11.75;4.68;;;;;;;;;;5107314;28;20024;-66
2021/10/13 02:13:33;;;;;;;11.48;5.00;;;;;;;;;;5107257;28;20039;-66
2021/10/13 02:15:59;;;;;;;10.18;5.20;;;;;;;;;;5107678;28;20142;-65
2021/10/13 02:18:28;;;;;;;10.15;4.75;;;;;;;;;;5107540;28;20431;-65
2021/10/13 02:20:55;;;;;;;12.32;5.60;;;;;;;;;;5105964;28;20035;-66
2021/10/13 02:23:23;;;;;;;9.98;4.60;;;;;;;;;;5110244;28;20091;-66
2021/10/13 02:25:50;;;;;;;10.77;4.25;;;;;;;;;;5109435;28;20024;-66
2021/10/13 02:28:25;;;;;;;9.00;4.45;;;;;;;;;;5108003;28;20471;-66
2021/10/13 02:30:53;;;;;;;8.25;3.85;;;;;;;;;;5107195;28;20031;-65
2021/10/13 02:33:19;;;;;;;9.75;4.03;;;;;;;;;;5107075;28;20034;-66
2021/10/13 02:35:45;;;;;;;9.57;4.22;;;;;;;;;;5107163;28;20036;-66
2021/10/13 02:38:10;;;;;;;10.80;4.18;;;;;;;;;;5111129;28;20486;-65
2021/10/13 02:40:36;;;;;;;8.65;3.50;;;;;;;;;;5110044;28;20035;-65
2021/10/13 02:43:04;;;;;;;11.73;5.60;;;;;;;;;;5108124;28;20024;-66
2021/10/13 02:45:34;;;;;;;14.63;5.28;;;;;;;;;;5107339;28;20023;-65
2021/10/13 02:48:01;;;;;;;11.98;5.03;;;;;;;;;;5108112;28;20028;-65
2021/10/13 02:50:35;;;;;;;11.00;4.50;;;;;;;;;;5111803;28;20061;-65
2021/10/13 02:53:20;;;;;;;11.15;4.13;;;;;;;;;;5114957;28;20571;-65
2021/10/13 02:55:49;;;;;;;8.98;4.47;;;;;;;;;;5114569;28;20033;-65
2021/10/13 02:58:27;;;;;;;9.65;4.65;;;;;;;;;;5111138;28;20027;-65
2021/10/13 03:00:53;;;;;;;;;;;;;;;;;;5112044;28;20038;-65
2021/10/13 03:03:28;;;;;;;16.25;4.43;;;;;;;;;;5111997;28;19962;-65
2021/10/13 03:05:55;;;;;;;10.38;4.70;;;;;;;;;;5111995;28;20031;-65
2021/10/13 03:08:23;;;;;;;9.70;4.22;;;;;;;;;;5114225;28;20027;-65
2021/10/13 03:10:50;;;;;;;10.20;5.03;;;;;;;;;;5112638;28;20482;-65
2021/10/13 03:13:17;;;;;;;12.68;5.30;;;;;;;;;;5111618;28;20142;-66
2021/10/13 03:15:44;;;;;;;10.95;4.57;;;;;;;;;;5111910;28;20387;-65
2021/10/13 03:18:11;;;;;;;11.98;5.65;;;;;;;;;;5112022;28;20032;-65
2021/10/13 03:20:38;;;;;;;10.48;4.80;;;;;;;;;;5112271;28;20028;-65
2021/10/13 03:23:05;;;;;;;10.70;5.45;;;;;;;;;;5115023;28;20116;-65
2021/10/13 03:25:32;;;;;;;14.90;4.78;;;;;;;;;;5111063;28;20371;-65
2021/10/13 03:28:03;;;;;;;9.68;4.32;;;;;;;;;;5111644;28;20032;-65
2021/10/13 03:30:30;;;;;;;9.25;4.10;;;;;;;;;;5111621;28;20055;-65
2021/10/13 03:32:56;;;;;;;8.13;3.58;;;;;;;;;;5113413;28;20371;-65
2021/10/13 03:35:23;;;;;;;9.68;4.18;;;;;;;;;;5113445;28;20048;-65
2021/10/13 03:37:49;;;;;;;8.50;4.45;;;;;;;;;;5106284;28;20179;-65
2021/10/13 03:40:16;;;;;;;8.85;4.07;;;;;;;;;;5104839;28;20024;-65
2021/10/13 03:42:42;;;;;;;9.52;3.92;;;;;;;;;;5106430;28;20110;-65
2021/10/13 03:45:11;;;;;;;8.07;3.85;;;;;;;;;;5103939;28;20076;-66
2021/10/13 03:47:37;;;;;;;8.50;4.45;;;;;;;;;;5103771;28;20039;-65
2021/10/13 03:50:03;;;;;;;8.98;3.80;;;;;;;;;;5102234;28;20023;-65
2021/10/13 03:52:29;;;;;;;8.45;4.13;;;;;;;;;;5109935;28;20040;-65
2021/10/13 03:54:55;;;;;;;9.75;4.03;;;;;;;;;;5110578;28;20092;-65
2021/10/13 03:57:21;;;;;;;8.15;4.00;;;;;;;;;;5111380;28;20027;-66
2021/10/13 03:59:47;;;;;;;8.20;3.72;;;;;;;;;;5111238;28;20036;-65
2021/10/13 04:02:14;;;;;;;8.27;3.83;;;;;;;;;;5113790;28;20425;-66
2021/10/13 04:04:40;;;;;;;6.05;3.22;;;;;;;;;;5111155;28;20016;-65
2021/10/13 04:07:06;;;;;;;7.90;3.30;;;;;;;;;;5110724;28;20039;-65
2021/10/13 04:09:32;;;;;;;5.65;2.60;;;;;;;;;;5110732;28;20020;-65
2021/10/13 04:11:58;;;;;;;8.77;3.40;;;;;;;;;;5110989;28;20502;-65
2021/10/13 04:14:24;;;;;;;6.22;3.42;;;;;;;;;;5104050;28;20044;-65
2021/10/13 04:16:50;;;;;;;7.95;3.58;;;;;;;;;;5111219;28;20038;-65
2021/10/13 04:19:17;;;;;;;6.88;3.00;;;;;;;;;;5110702;28;20038;-65
2021/10/13 04:21:43;;;;;;;9.25;3.47;;;;;;;;;;5110926;28;20024;-65
2021/10/13 04:24:09;;;;;;;8.30;3.78;;;;;;;;;;5110412;28;20483;-65
2021/10/13 04:26:35;;;;;;;7.07;3.25;;;;;;;;;;5110903;28;20028;-65
2021/10/13 04:29:01;;;;;;;7.72;2.80;;;;;;;;;;5113159;28;20074;-65
2021/10/13 04:31:27;;;;;;;6.75;3.80;;;;;;;;;;5110182;28;20499;-65
2021/10/13 04:33:53;;;;;;;5.93;3.05;;;;;;;;;;5110266;28;20055;-65
2021/10/13 04:36:19;;;;;;;4.80;2.55;;;;;;;;;;5109947;28;20034;-65
2021/10/13 04:38:45;;;;;;;7.13;3.20;;;;;;;;;;5110545;28;20038;-65
2021/10/13 04:41:11;;;;;;;9.07;3.50;;;;;;;;;;5113033;28;20391;-65
2021/10/13 04:43:37;;;;;;;7.40;2.85;;;;;;;;;;5110661;28;20028;-65
2021/10/13 04:46:03;;;;;;;9.60;3.60;;;;;;;;;;5103892;28;20090;-65
2021/10/13 04:48:29;;;;;;;9.88;3.45;;;;;;;;;;5110240;28;20157;-65
2021/10/13 04:50:55;;;;;;;8.15;3.78;;;;;;;;;;5110094;28;20028;-65
2021/10/13 04:53:21;;;;;;;7.57;3.33;;;;;;;;;;5111651;28;20391;-65
2021/10/13 04:55:47;;;;;;;9.00;3.50;;;;;;;;;;5111085;28;20035;-66
2021/10/13 04:58:13;;;;;;;8.30;3.92;;;;;;;;;;5109886;28;20051;-66
2021/10/13 05:00:39;;;;;;;10.13;3.88;;;;;;;;;;5103733;28;20474;-65
2021/10/13 05:03:05;;;;;;;8.02;3.50;;;;;;;;;;5109696;28;20023;-66
2021/10/13 05:05:31;;;;;;;6.82;3.40;;;;;;;;;;5111263;28;20040;-66
2021/10/13 05:07:57;;;;;;;9.40;4.28;;;;;;;;;;5111602;28;20128;-66
2021/10/13 05:10:23;;;;;;;9.07;3.40;;;;;;;;;;5109553;28;20471;-66
2021/10/13 05:12:49;;;;;;;8.43;3.58;;;;;;;;;;5109005;28;20028;-65
2021/10/13 05:15:15;;;;;;;7.32;3.55;;;;;;;;;;5109716;28;20023;-66
2021/10/13 05:17:41;;;;;;;9.18;3.78;;;;;;;;;;5108715;28;20390;-65
2021/10/13 05:20:08;;;;;;;8.25;4.10;;;;;;;;;;5113213;28;20544;-65
2021/10/13 05:22:34;;;;;;;7.20;3.92;;;;;;;;;;5109314;28;20509;-65
2021/10/13 05:25:00;;;;;;;10.18;4.22;;;;;;;;;;5109383;28;20059;-66
2021/10/13 05:27:26;;;;;;;9.23;4.25;;;;;;;;;;5109157;28;20104;-66
2021/10/13 05:29:52;;;;;;;8.13;3.83;;;;;;;;;;5109206;28;20035;-67
2021/10/13 05:32:18;;;;;;;6.75;3.50;;;;;;;;;;5111269;28;20024;-66
2021/10/13 05:34:44;;;;;;;8.85;3.97;;;;;;;;;;5110087;28;20052;-66
2021/10/13 05:37:10;;;;;;;7.90;3.75;;;;;;;;;;5108443;28;20391;-66
2021/10/13 05:39:36;;;;;;;8.10;3.83;;;;;;;;;;5108994;28;20034;-66
2021/10/13 05:42:02;;;;;;;7.22;3.53;;;;;;;;;;5109143;28;20024;-66
2021/10/13 05:44:28;;;;;;;7.53;3.70;;;;;;;;;;5111035;28;20028;-66
2021/10/13 05:46:54;;;;;;;7.00;3.97;;;;;;;;;;5111255;28;20034;-66
2021/10/13 05:49:20;;;;;;;9.43;3.33;;;;;;;;;;5103566;28;20538;-66
2021/10/13 05:51:46;;;;;;;6.90;3.30;;;;;;;;;;5108189;28;20100;-66
2021/10/13 05:54:12;;;;;;;9.93;3.55;;;;;;;;;;5097585;28;20086;-66
2021/10/13 05:56:38;;;;;;;6.18;3.13;;;;;;;;;;5109448;28;20033;-66
2021/10/13 05:59:04;;;;;;;7.28;2.92;;;;;;;;;;5112044;28;20073;-66
2021/10/13 06:01:30;;;;;;;6.45;3.13;;;;;;;;;;5105515;28;20520;-66
2021/10/13 06:03:56;;;;;;;6.68;3.55;;;;;;;;;;5100173;28;20035;-66
2021/10/13 06:06:22;;;;;;;6.88;3.45;;;;;;;;;;5108049;28;20443;-66
2021/10/13 06:08:48;;;;;;;15.48;5.30;;;;;;;;;;5106534;28;20024;-67
2021/10/13 06:11:14;;;;;;;9.50;4.47;;;;;;;;;;5092665;28;20021;-67
2021/10/13 06:13:41;;;;;;;7.15;4.13;;;;;;;;;;5109461;28;20524;-64
2021/10/13 06:16:11;;;;;;;8.27;4.40;;;;;;;;;;5109586;28;20028;-67
2021/10/13 06:18:37;;;;;;;7.85;3.95;;;;;;;;;;5108136;28;20024;-64
2021/10/13 06:21:03;;;;;;;8.93;3.63;;;;;;;;;;5108663;28;20018;-67
2021/10/13 06:23:29;;;;;;;12.00;3.53;;;;;;;;;;5109651;28;20419;-66
2021/10/13 06:25:55;;;;;;;8.75;4.10;;;;;;;;;;5110550;28;20031;-66
2021/10/13 06:28:21;;;;;;;11.73;4.32;;;;;;;;;;5108375;28;20390;-66
2021/10/13 06:30:47;;;;;;;10.43;3.90;;;;;;;;;;5108752;28;20024;-66
2021/10/13 06:33:13;;;;;;;9.68;3.80;;;;;;;;;;5107636;28;20032;-66
2021/10/13 06:35:39;;;;;;;9.63;3.72;;;;;;;;;;5108431;28;20044;-66
2021/10/13 06:38:06;;;;;;;11.65;4.10;;;;;;;;;;5111549;28;20451;-66
2021/10/13 06:40:32;;;;;;;9.20;4.30;;;;;;;;;;5107584;28;20027;-66
2021/10/13 06:43:00;;;;;;;10.18;4.43;;;;;;;;;;5103039;28;20152;-66
2021/10/13 06:45:26;;;;;;;;;;;;;;;;;;5108619;28;20016;-65
2021/10/13 06:47:52;;;;;;;9.07;4.20;;;;;;;;;;5108226;28;19908;-65
2021/10/13 06:50:18;;;;;;;11.23;5.68;;;;;;;;;;5109960;28;20052;-65
2021/10/13 06:52:44;;;;;;;11.18;5.55;;;;;;;;;;5109421;28;20148;-65
2021/10/13 06:55:10;;;;;;;10.82;5.95;;;;;;;;;;5107831;28;20137;-65
2021/10/13 06:57:37;;;;;;;10.88;5.55;;;;;;;;;;5107831;28;20103;-65
2021/10/13 07:00:04;;;;;;;15.32;5.95;;;;;;;;;;5107886;28;20031;-65
2021/10/13 07:02:30;;;;;;;9.95;4.30;;;;;;;;;;5109395;28;20043;-65
2021/10/13 07:04:56;;;;;;;8.88;4.65;;;;;;;;;;5109982;28;20019;-66
2021/10/13 07:07:22;;;;;;;9.50;4.55;;;;;;;;;;5108126;28;20475;-65
2021/10/13 07:09:48;;;;;;;9.15;4.30;;;;;;;;;;5107865;28;20027;-66
2021/10/13 07:12:14;;;;;;;7.22;3.97;;;;;;;;;;5106227;28;20437;-66
2021/10/13 07:14:42;;;;;;;9.55;3.47;;;;;;;;;;5107294;28;20042;-66
2021/10/13 07:17:08;;;;;;;11.82;4.40;;;;;;;;;;5102956;28;20012;-66
2021/10/13 07:19:34;;;;;;;8.40;4.40;;;;;;;;;;5107822;28;20028;-66
2021/10/13 07:21:59;;;;;;;7.45;3.70;;;;;;;;;;5107447;28;20024;-67
2021/10/13 07:24:25;;;;;;;6.90;3.08;;;;;;;;;;5108143;28;20456;-67
2021/10/13 07:26:51;;;;;;;5.22;3.20;;;;;;;;;;5107737;28;20035;-67
2021/10/13 07:29:18;;;;;;;11.45;4.20;;;;;;;;;;5109763;28;20040;-67
2021/10/13 07:31:44;;;;;;;7.38;4.47;;;;;;;;;;5109199;28;20023;-66
2021/10/13 07:34:09;;;;;;;8.38;4.57;;;;;;;;;;5108626;28;20380;-66
2021/10/13 07:36:37;;;;;;;10.57;4.93;;;;;;;;;;5109867;28;20022;-66
2021/10/13 07:39:03;;;;;;;13.07;5.38;;;;;;;;;;5111890;28;20039;-66
2021/10/13 07:41:29;;;;;;;8.82;4.72;;;;;;;;;;5112360;28;20379;-66
2021/10/13 07:43:55;;;;;;;11.63;5.07;;;;;;;;;;5113102;28;20028;-66
2021/10/13 07:46:23;;;;;;;8.50;4.13;;;;;;;;;;5110687;28;20472;-66
2021/10/13 07:48:49;;;;;;;7.38;3.95;;;;;;;;;;5111622;28;20027;-66
2021/10/13 07:51:16;;;;;;;6.40;3.58;;;;;;;;;;5111426;28;20027;-66
2021/10/13 07:53:41;;;;;;;9.80;3.90;;;;;;;;;;5111048;28;20136;-66
2021/10/13 07:56:08;;;;;;;7.93;3.38;;;;;;;;;;5115069;28;20487;-66
2021/10/13 07:58:33;;;;;;;8.38;2.95;;;;;;;;;;5111099;28;20027;-66
2021/10/13 08:00:59;;;;;;;6.60;2.55;;;;;;;;;;5110676;28;20114;-66
2021/10/13 08:03:25;;;;;;;5.53;2.80;;;;;;;;;;5111431;28;20020;-66
2021/10/13 08:05:51;;;;;;;5.32;2.95;;;;;;;;;;5110974;28;20506;-66
2021/10/13 08:08:17;;;;;;;6.97;2.88;;;;;;;;;;5113443;28;20059;-66
2021/10/13 08:10:43;;;;;;;4.55;1.90;;;;;;;;;;5111677;28;20058;-66
2021/10/13 08:13:09;;;;;;;4.28;2.45;;;;;;;;;;5110727;28;20115;-67
2021/10/13 08:15:35;;;;;;;3.33;2.10;;;;;;;;;;5110769;28;20027;-66
2021/10/13 08:18:01;;;;;;;5.30;2.25;;;;;;;;;;5111091;28;20151;-66
2021/10/13 08:20:27;;;;;;;5.68;2.20;;;;;;;;;;5110987;28;20030;-66
2021/10/13 08:22:53;;;;;;;5.10;2.10;;;;;;;;;;5111980;28;20481;-66
2021/10/13 08:25:20;;;;;;;3.70;1.60;;;;;;;;;;5110622;28;20036;-65
2021/10/13 08:27:46;;;;;;;2.95;1.70;;;;;;;;;;5103945;28;20470;-66
2021/10/13 08:30:12;;;;;;;2.28;1.30;;;;;;;;;;5109750;28;20088;-65
2021/10/13 08:32:38;;;;;;;2.20;1.20;;;;;;;;;;5108311;28;20032;-65
2021/10/13 08:35:05;;;;;;;2.00;1.08;;;;;;;;;;5113365;28;20097;-65
2021/10/13 08:37:31;;;;;;;3.17;1.05;;;;;;;;;;5110255;28;20024;-65
2021/10/13 08:39:57;;;;;;;2.58;1.33;;;;;;;;;;5110102;28;20036;-65
2021/10/13 08:42:24;;;;;;;4.95;1.40;;;;;;;;;;5109959;28;20039;-65
2021/10/13 08:44:52;;;;;;;4.13;1.50;;;;;;;;;;5109988;28;20024;-65
2021/10/13 08:47:18;;;;;;;3.10;1.60;;;;;;;;;;5110396;28;20054;-65
2021/10/13 08:49:45;;;;;;;3.15;1.50;;;;;;;;;;5111034;28;20463;-65
2021/10/13 08:52:11;;;;;;;2.40;1.45;;;;;;;;;;5109830;28;20047;-66
2021/10/13 08:54:38;;;;;;;3.72;1.80;;;;;;;;;;5109267;28;20411;-66
2021/10/13 08:57:26;;;;;;;4.53;1.73;;;;;;;;;;5110302;28;20024;-66
2021/10/13 08:59:52;;;;;;;2.67;1.40;;;;;;;;;;5095242;28;20107;-66
2021/10/13 09:02:38;;;;;;;2.53;1.38;;;;;;;;;;5111634;28;20073;-66
2021/10/13 09:05:05;;;;;;;2.60;1.20;;;;;;;;;;5112678;28;20455;-66
2021/10/13 09:07:31;;;;;;;4.47;1.20;;;;;;;;;;5109902;28;20024;-66
2021/10/13 09:09:57;;;;;;;3.67;1.20;;;;;;;;;;5109833;28;20078;-66
2021/10/13 09:12:30;;;;;;;2.88;1.42;;;;;;;;;;5108997;28;20020;-65
2021/10/13 09:15:07;;;;;;;3.03;1.25;;;;;;;;;;5107561;28;20040;-66
2021/10/13 09:17:49;;;;;;;2.72;1.38;;;;;;;;;;5110131;28;20055;-66
2021/10/13 09:20:16;;;;;;;4.03;1.23;;;;;;;;;;5108603;28;20463;-65
2021/10/13 09:22:54;;;;;;;3.20;1.17;;;;;;;;;;5110337;28;20382;-66
2021/10/13 09:25:19;;;;;;;2.80;1.42;;;;;;;;;;5109511;28;20032;-66
2021/10/13 09:27:46;;;;;;;6.05;1.30;;;;;;;;;;5108601;28;20342;-66
2021/10/13 09:30:12;;;;;;;17.20;1.67;;;;;;;;;;5108698;28;20027;-66
2021/10/13 09:32:42;;;;;;;2.67;1.25;;;;;;;;;;5109799;28;20394;-66
2021/10/13 09:35:08;;;;;;;4.22;1.55;;;;;;;;;;5108281;28;20047;-66
2021/10/13 09:37:43;;;;;;;3.70;1.55;;;;;;;;;;5109138;28;20114;-66
2021/10/13 09:40:10;;;;;;;2.80;1.30;;;;;;;;;;5109012;28;20028;-66
2021/10/13 09:42:37;;;;;;;3.88;1.77;;;;;;;;;;5108232;28;20031;-66
2021/10/13 09:45:03;;;;;;;4.33;1.50;;;;;;;;;;5108760;28;20024;-66
2021/10/13 09:47:30;;;;;;;1.85;1.00;;;;;;;;;;5110825;28;20032;-66
2021/10/13 09:49:57;;;;;;;4.53;1.30;;;;;;;;;;5111168;28;20395;-66
2021/10/13 09:52:27;;;;;;;5.55;1.63;;;;;;;;;;5108448;28;20028;-68
2021/10/13 09:55:01;;;;;;;3.92;1.35;;;;;;;;;;5108867;28;20090;-66
2021/10/13 09:57:28;;;;;;;2.22;1.20;;;;;;;;;;5108595;28;20041;-66
2021/10/13 10:00:01;;;;;;;2.80;1.38;;;;;;;;;;5108638;28;20472;-66
2021/10/13 10:02:30;;;;;;;2.80;1.27;;;;;;;;;;5110436;28;20068;-67
2021/10/13 10:04:59;;;;;;;2.47;1.30;;;;;;;;;;5109786;28;20028;-67
2021/10/13 10:07:25;;;;;;;2.50;1.15;;;;;;;;;;5098440;28;20036;-66
2021/10/13 10:10:10;;;;;;;2.72;1.25;;;;;;;;;;5101859;28;20031;-66
2021/10/13 10:13:05;;;;;;;5.70;1.13;;;;;;;;;;5104865;28;20020;-66
2021/10/13 10:15:32;;;;;;;2.65;1.10;;;;;;;;;;5082417;28;20039;-67
2021/10/13 10:17:59;;;;;;;2.50;1.13;;;;;;;;;;5108861;28;20021;-67
2021/10/13 10:20:38;;;;;;;2.63;1.00;;;;;;;;;;5111004;28;20601;-67
2021/10/13 10:23:23;;;;;;;2.35;1.10;;;;;;;;;;5111271;28;20398;-66
2021/10/13 10:25:49;;;;;;;2.53;1.17;;;;;;;;;;5111488;28;20036;-67
2021/10/13 10:28:41;;;;;;;2.22;1.08;;;;;;;;;;5108733;28;20031;-67
2021/10/13 10:31:27;;;;;;;1.95;1.10;;;;;;;;;;5102954;28;20040;-66
2021/10/13 10:34:08;;;;;;;1.85;1.00;;;;;;;;;;5103885;28;20278;-65
2021/10/13 10:36:40;;;;;;;4.93;1.52;;;;;;;;;;5107203;28;20023;-65
2021/10/13 10:39:07;;;;;;;2.08;1.23;;;;;;;;;;5108598;28;20059;-65
2021/10/13 10:41:39;;;;;;;1.73;1.00;;;;;;;;;;5075412;28;20661;-65
2021/10/13 10:44:24;;;;;;;4.57;1.15;;;;;;;;;;5097610;28;20024;-65
2021/10/13 10:46:58;;;;;;;2.67;1.20;;;;;;;;;;5098734;28;20444;-65
2021/10/13 10:49:42;;;;;;;2.95;1.02;;;;;;;;;;5094956;28;20076;-65
2021/10/13 10:52:08;;;;;;;2.58;1.20;;;;;;;;;;5104382;28;20046;-65
2021/10/13 10:54:34;;;;;;;2.90;1.10;;;;;;;;;;5103083;28;20075;-65
2021/10/13 10:57:00;;;;;;;3.80;1.15;;;;;;;;;;5105623;28;20024;-65
2021/10/13 10:59:38;;;;;;;3.00;1.35;;;;;;;;;;5101525;28;20024;-65
2021/10/13 11:02:09;;;;;;;4.05;1.02;;;;;;;;;;5107282;28;20023;-65
2021/10/13 11:04:35;;;;;;;4.95;1.40;;;;;;;;;;5103210;28;20028;-65
2021/10/13 11:07:01;;;;;;;3.33;1.27;;;;;;;;;;5106468;28;20019;-65
2021/10/13 11:09:27;;;;;;;2.53;0.85;;;;;;;;;;5090241;28;20034;-65
2021/10/13 11:11:53;;;;;;;1.75;1.02;;;;;;;;;;5103103;28;20032;-65
2021/10/13 11:14:27;;;;;;;1.15;0.73;;;;;;;;;;5111445;28;20063;-65
2021/10/13 11:16:54;;;;;;;1.63;0.80;;;;;;;;;;5112243;28;20023;-65
2021/10/13 11:19:39;;;;;;;2.65;0.68;;;;;;;;;;5110597;28;20035;-65
2021/10/13 11:22:07;;;;;;;2.92;1.35;;;;;;;;;;5093962;28;20030;-64
2021/10/13 11:24:34;;;;;;;2.83;1.20;;;;;;;;;;5110171;28;20023;-67
2021/10/13 11:27:00;;;;;;;2.72;1.27;;;;;;;;;;5108604;28;20360;-64
2021/10/13 11:29:31;;;;;;;3.25;0.95;;;;;;;;;;5113927;28;20076;-63
2021/10/13 11:32:09;;;;;;;1.52;0.90;;;;;;;;;;5100575;28;20031;-63
2021/10/13 11:34:35;;;;;;;1.35;0.70;;;;;;;;;;5105958;28;20044;-67
2021/10/13 11:37:02;;;;;;;2.35;0.60;;;;;;;;;;5099564;28;20028;-68
2021/10/13 11:39:31;;;;;;;1.40;0.55;;;;;;;;;;5086482;28;20051;-65
2021/10/13 11:41:58;;;;;;;1.45;0.55;;;;;;;;;;5102423;28;20028;-68
2021/10/13 11:44:24;;;;;;;1.75;0.73;;;;;;;;;;5101633;28;20503;-67
2021/10/13 11:47:07;;;;;;;1.08;0.70;;;;;;;;;;5103238;28;20016;-67
2021/10/13 11:49:52;;;;;;;2.03;0.73;;;;;;;;;;5108457;28;20088;-67
2021/10/13 11:52:18;;;;;;;1.27;0.57;;;;;;;;;;5104155;28;20032;-67
2021/10/13 11:54:44;;;;;;;1.73;0.80;;;;;;;;;;5103086;28;20100;-71
2021/10/13 11:57:10;;;;;;;2.40;1.08;;;;;;;;;;5110301;28;20032;-68
2021/10/13 11:59:36;;;;;;;1.70;0.70;;;;;;;;;;5094440;28;20020;-69
2021/10/13 12:02:10;;;;;;;2.25;0.98;;;;;;;;;;5104784;28;20671;-69
2021/10/13 12:04:36;;;;;;;1.23;0.65;;;;;;;;;;5110673;28;20059;-68
2021/10/13 12:07:01;;;;;;;1.23;0.63;;;;;;;;;;5104519;28;20104;-67
2021/10/13 12:09:27;;;;;;;1.40;0.70;;;;;;;;;;5110050;28;20486;-68
2021/10/13 12:11:53;;;;;;;1.08;0.60;;;;;;;;;;5110072;28;20059;-69
2021/10/13 12:14:19;;;;;;;1.02;0.55;;;;;;;;;;5096344;28;20046;-67
2021/10/13 12:16:45;;;;;;;3.05;1.13;;;;;;;;;;5108483;28;20050;-69
2021/10/13 12:19:15;;;;;;;1.90;0.77;;;;;;;;;;5105334;28;20127;-67
2021/10/13 12:21:58;;;;;;;3.50;1.00;;;;;;;;;;5097870;28;20027;-67
2021/10/13 12:24:24;;;;;;;2.22;0.55;;;;;;;;;;5099918;28;20024;-65
2021/10/13 12:26:50;;;;;;;2.72;0.90;;;;;;;;;;5109856;28;20177;-69
2021/10/13 12:29:16;;;;;;;6.60;1.95;;;;;;;;;;5098794;28;20053;-67
2021/10/13 12:31:42;;;;;;;9.18;2.20;;;;;;;;;;5108589;28;20024;-66
2021/10/13 12:34:14;;;;;;;2.65;1.08;;;;;;;;;;5109832;28;20136;-65
2021/10/13 12:36:41;;;;;;;6.97;1.67;;;;;;;;;;5105640;28;20024;-65
2021/10/13 12:39:15;;;;;;;2.23;0.80;;;;;;;;;;5100297;28;20460;-66
2021/10/13 12:41:45;;;;;;;5.20;0.95;;;;;;;;;;5093343;28;20116;-65
2021/10/13 12:44:14;;;;;;;1.20;0.63;;;;;;;;;;5096356;28;20035;-66
2021/10/13 12:46:41;;;;;;;1.52;0.50;;;;;;;;;;5105127;28;20046;-66
2021/10/13 12:49:12;;;;;;;1.77;0.60;;;;;;;;;;5110063;28;20062;-66
2021/10/13 12:52:00;;;;;;;3.53;0.90;;;;;;;;;;5102144;28;20057;-66
2021/10/13 12:54:29;;;;;;;2.30;0.70;;;;;;;;;;5099882;28;20042;-66
2021/10/13 12:56:56;;;;;;;2.85;1.30;;;;;;;;;;5106107;28;20032;-66
2021/10/13 12:59:23;;;;;;;3.05;0.90;;;;;;;;;;5111802;28;20024;-66
2021/10/13 13:01:49;;;;;;;1.50;0.70;;;;;;;;;;5111261;28;20031;-66
2021/10/13 13:04:15;;;;;;;3.45;0.70;;;;;;;;;;5109757;28;20028;-66
2021/10/13 13:06:41;;;;;;;1.95;0.85;;;;;;;;;;5109614;28;20034;-65
2021/10/13 13:09:07;;;;;;;3.75;1.02;;;;;;;;;;5109620;28;20090;-66
2021/10/13 13:11:33;;;;;;;3.50;0.80;;;;;;;;;;5110917;28;20034;-67
2021/10/13 13:13:59;;;;;;;1.80;0.68;;;;;;;;;;5097093;28;20198;-67
2021/10/13 13:16:26;;;;;;;4.60;0.90;;;;;;;;;;5107111;28;20099;-67
2021/10/13 13:18:55;;;;;;;3.90;0.80;;;;;;;;;;5109503;28;20024;-66
2021/10/13 13:21:21;;;;;;;2.08;0.90;;;;;;;;;;5109265;28;20111;-66
2021/10/13 13:23:50;;;;;;;3.03;0.80;;;;;;;;;;5108455;28;20059;-66
2021/10/13 13:26:16;;;;;;;2.80;0.80;;;;;;;;;;5112293;28;20016;-66
2021/10/13 13:28:42;;;;;;;3.60;0.80;;;;;;;;;;5110002;28;20483;-66
2021/10/13 13:31:08;;;;;;;2.17;0.90;;;;;;;;;;5109511;28;20027;-65
2021/10/13 13:33:34;;;;;;;1.45;0.80;;;;;;;;;;5108413;28;20043;-65
2021/10/13 13:36:01;;;;;;;1.80;0.70;;;;;;;;;;5108885;28;20039;-66
2021/10/13 13:38:27;;;;;;;1.80;0.85;;;;;;;;;;5107368;28;20467;-66
2021/10/13 13:40:53;;;;;;;3.33;1.15;;;;;;;;;;5111002;28;20535;-65
2021/10/13 13:43:19;;;;;;;2.28;0.98;;;;;;;;;;5099756;28;20115;-66
2021/10/13 13:45:45;;;;;;;4.20;0.98;;;;;;;;;;5101434;28;20467;-66
2021/10/13 13:48:11;;;;;;;1.50;0.70;;;;;;;;;;5109284;28;20061;-66
2021/10/13 13:50:37;;;;;;;2.03;0.68;;;;;;;;;;5109572;28;20507;-66
2021/10/13 13:53:03;;;;;;;5.32;1.52;;;;;;;;;;5111611;28;20114;-66
2021/10/13 13:55:30;;;;;;;2.38;1.25;;;;;;;;;;5108644;28;20039;-66
2021/10/13 13:57:56;;;;;;;1.40;0.73;;;;;;;;;;5104108;28;20026;-66
2021/10/13 14:00:22;;;;;;;4.90;0.70;;;;;;;;;;5109070;28;20471;-66
2021/10/13 14:02:48;;;;;;;1.67;0.80;;;;;;;;;;5108701;28;20020;-66
2021/10/13 14:05:14;;;;;;;1.23;0.70;;;;;;;;;;5111434;28;20081;-66
2021/10/13 14:07:40;;;;;;;2.03;0.90;;;;;;;;;;5109459;28;20107;-66
2021/10/13 14:10:07;;;;;;;3.08;1.08;;;;;;;;;;5109003;28;20032;-66
2021/10/13 14:12:33;;;;;;;1.85;0.70;;;;;;;;;;5105706;28;20065;-65
2021/10/13 14:14:59;;;;;;;2.17;0.80;;;;;;;;;;5093501;28;20043;-66
2021/10/13 14:17:25;;;;;;;1.85;0.90;;;;;;;;;;5103252;28;20020;-66
2021/10/13 14:19:51;;;;;;;2.90;1.10;;;;;;;;;;5109852;28;20381;-66
2021/10/13 14:22:17;;;;;;;2.47;1.00;;;;;;;;;;5108696;28;20390;-66
2021/10/13 14:24:43;;;;;;;1.58;0.80;;;;;;;;;;5108068;28;20031;-66
2021/10/13 14:27:09;;;;;;;24.50;11.85;;;;;;;;;;5108309;28;20092;-66
2021/10/13 14:29:35;;;;;;;9.60;4.53;;;;;;;;;;5105609;28;20032;-65
2021/10/13 14:32:01;;;;;;;6.68;1.90;;;;;;;;;;5110876;28;20054;-66
2021/10/13 14:34:27;;;;;;;5.65;2.00;;;;;;;;;;5108015;28;20243;-66
2021/10/13 14:36:53;;;;;;;17.40;9.07;;;;;;;;;;5107665;28;20511;-66
2021/10/13 14:39:19;;;;;;;9.00;3.55;;;;;;;;;;5108688;28;20439;-66
2021/10/13 14:41:46;;;;;;;14.98;8.57;;;;;;;;;;5107273;28;20020;-65
2021/10/13 14:44:13;;;;;;;4.82;1.50;;;;;;;;;;5094506;28;20440;-66